Time;durP1;ratioP1;P1;durP2;ratioP2;P2;SDS_P1;SDS_P2;PMS_P1;PMS_P2;Temp;Humidity;BMP_temperature;BMP_pressure;BME280_temperature;BME280_humidity;BME280_pressure;Samples;Min_cycle;Max_cycle;Signal;HPM_P1;HPM_P2
2021/08/07 00:02:22;;;;;;;2.95;1.80;;;16.60;99.90;;;;;;5015291;28;20626;-82
2021/08/07 00:04:49;;;;;;;3.72;2.40;;;16.70;99.90;;;;;;5017833;28;20312;-83
2021/08/07 00:07:16;;;;;;;2.40;2.20;;;16.60;99.90;;;;;;5018289;28;20220;-83
2021/08/07 00:09:43;;;;;;;2.53;2.30;;;16.60;99.90;;;;;;5019176;28;20236;-82
2021/08/07 00:12:10;;;;;;;2.40;2.00;;;16.50;99.90;;;;;;5022234;28;20275;-83
2021/08/07 00:14:36;;;;;;;3.30;2.40;;;16.40;99.90;;;;;;5019643;28;20216;-82
2021/08/07 00:17:05;;;;;;;2.65;2.30;;;16.40;99.90;;;;;;5013877;28;20259;-82
2021/08/07 00:19:32;;;;;;;2.97;2.20;;;16.40;99.90;;;;;;5020154;28;20214;-82
2021/08/07 00:21:59;;;;;;;2.30;2.10;;;16.50;99.90;;;;;;5020986;28;20267;-82
2021/08/07 00:24:25;;;;;;;2.75;2.30;;;16.40;99.90;;;;;;5021353;28;20342;-83
2021/08/07 00:26:52;;;;;;;2.67;2.25;;;16.40;99.90;;;;;;5021256;28;20536;-83
2021/08/07 00:29:19;;;;;;;2.60;2.35;;;16.20;99.90;;;;;;5021568;28;20201;-84
2021/08/07 00:31:46;;;;;;;2.58;2.38;;;16.20;99.90;;;;;;5020175;28;20243;-83
2021/08/07 00:34:14;;;;;;;4.95;2.63;;;16.30;99.90;;;;;;5021933;28;20708;-83
2021/08/07 00:36:42;;;;;;;2.92;2.50;;;16.20;99.90;;;;;;5020213;28;20307;-82
2021/08/07 00:39:09;;;;;;;3.17;2.88;;;16.10;99.90;;;;;;5020284;28;20291;-81
2021/08/07 00:41:36;;;;;;;5.60;3.90;;;16.00;99.90;;;;;;5020852;28;20232;-83
2021/08/07 00:44:03;;;;;;;8.55;4.82;;;15.90;99.90;;;;;;5021068;28;20213;-83
2021/08/07 00:46:29;;;;;;;7.40;5.27;;;15.80;99.90;;;;;;5019789;28;20324;-82
2021/08/07 00:48:56;;;;;;;4.60;3.38;;;15.80;99.90;;;;;;5019597;28;20263;-83
2021/08/07 00:51:24;;;;;;;3.42;3.08;;;15.90;99.90;;;;;;5015694;28;20304;-81
2021/08/07 00:53:51;;;;;;;4.78;2.70;;;15.80;99.90;;;;;;5016668;28;20231;-83
2021/08/07 00:56:18;;;;;;;3.17;2.45;;;15.90;99.90;;;;;;5018587;28;20263;-83
2021/08/07 00:58:45;;;;;;;2.75;2.55;;;15.80;99.90;;;;;;5018933;28;20228;-81
2021/08/07 01:01:15;;;;;;;3.97;2.80;;;16.00;99.90;;;;;;5019732;28;20638;-84
2021/08/07 01:03:46;;;;;;;2.67;2.47;;;16.10;99.90;;;;;;5019611;28;20228;-83
2021/08/07 01:06:34;;;;;;;3.40;3.00;;;16.10;99.90;;;;;;5018671;28;20227;-84
2021/08/07 01:09:12;;;;;;;2.45;2.25;;;16.00;99.90;;;;;;5011198;28;20224;-81
2021/08/07 01:11:49;;;;;;;3.70;2.60;;;15.90;99.90;;;;;;5014278;28;20267;-83
2021/08/07 01:14:21;;;;;;;3.40;2.55;;;15.90;99.90;;;;;;5010848;28;20201;-83
2021/08/07 01:16:49;;;;;;;3.10;2.43;;;15.90;99.90;;;;;;5010870;28;20228;-82
2021/08/07 01:19:18;;;;;;;2.93;2.43;;;15.90;99.90;;;;;;5015924;28;20291;-82
2021/08/07 01:21:51;;;;;;;3.37;2.50;;;15.80;99.90;;;;;;5011599;28;20609;-82
2021/08/07 01:24:24;;;;;;;3.90;2.50;;;15.70;99.90;;;;;;5008236;28;20224;-82
2021/08/07 01:27:18;;;;;;;2.47;2.10;;;15.80;99.90;;;;;;5008674;28;20315;-83
2021/08/07 01:29:47;;;;;;;2.70;2.50;;;15.80;99.90;;;;;;5005202;28;20204;-82
2021/08/07 01:32:14;;;;;;;2.80;2.00;;;15.80;99.90;;;;;;5008787;28;20233;-82
2021/08/07 01:34:43;;;;;;;2.47;2.28;;;15.80;99.90;;;;;;5006030;28;20278;-82
2021/08/07 01:37:10;;;;;;;2.43;2.20;;;15.70;99.90;;;;;;5009127;28;20321;-82
2021/08/07 01:39:43;;;;;;;2.20;2.00;;;15.70;99.90;;;;;;5011336;28;20579;-82
2021/08/07 01:42:09;;;;;;;2.10;1.90;;;15.70;99.90;;;;;;5005198;28;20284;-81
2021/08/07 01:44:36;;;;;;;4.55;2.13;;;15.70;99.90;;;;;;5002398;28;20701;-81
2021/08/07 01:47:11;;;;;;;2.40;2.20;;;15.70;99.90;;;;;;5009353;28;20226;-82
2021/08/07 01:49:46;;;;;;;2.53;2.33;;;15.60;99.90;;;;;;5010939;28;20259;-83
2021/08/07 01:52:19;;;;;;;3.83;2.20;;;15.60;99.90;;;;;;5007736;28;20641;-82
2021/08/07 01:54:49;;;;;;;2.47;1.90;;;15.50;99.90;;;;;;5005003;28;20295;-82
2021/08/07 01:57:21;;;;;;;2.10;2.00;;;15.60;99.90;;;;;;5004101;28;20776;-82
2021/08/07 01:59:50;;;;;;;2.50;2.30;;;15.50;99.90;;;;;;5010175;28;20205;-82
2021/08/07 02:02:19;;;;;;;2.60;2.40;;;15.50;99.90;;;;;;5007816;28;20639;-82
2021/08/07 02:04:47;;;;;;;2.95;2.00;;;15.40;99.90;;;;;;5006109;28;20228;-82
2021/08/07 02:07:15;;;;;;;2.70;2.50;;;15.40;99.90;;;;;;5003267;28;20256;-81
2021/08/07 02:09:44;;;;;;;2.93;2.27;;;15.30;99.90;;;;;;5007147;28;20204;-83
2021/08/07 02:12:14;;;;;;;3.47;2.60;;;15.30;99.90;;;;;;5008460;28;20193;-82
2021/08/07 02:14:43;;;;;;;3.50;3.10;;;15.20;99.90;;;;;;5010884;28;20267;-83
2021/08/07 02:17:10;;;;;;;2.80;2.10;;;15.10;99.90;;;;;;5006186;28;20275;-82
2021/08/07 02:19:41;;;;;;;6.57;2.60;;;15.20;99.90;;;;;;5003684;28;20247;-83
2021/08/07 02:22:09;;;;;;;3.43;2.40;;;15.10;99.90;;;;;;5011253;28;20215;-84
2021/08/07 02:24:36;;;;;;;5.90;3.00;;;15.10;99.90;;;;;;5006220;28;20235;-83
2021/08/07 02:27:04;;;;;;;2.20;2.00;;;15.10;99.90;;;;;;5009036;28;20274;-82
2021/08/07 02:29:33;;;;;;;2.63;2.03;;;15.20;99.90;;;;;;5007704;28;20196;-83
2021/08/07 02:32:00;;;;;;;2.77;2.40;;;15.20;99.90;;;;;;5009151;28;20653;-84
2021/08/07 02:34:28;;;;;;;2.40;2.20;;;15.10;99.90;;;;;;5009165;28;20292;-84
2021/08/07 02:36:58;;;;;;;2.27;2.07;;;15.10;99.90;;;;;;5007846;28;20316;-84
2021/08/07 02:39:27;;;;;;;2.50;2.30;;;15.10;99.90;;;;;;5011885;28;20283;-82
2021/08/07 02:41:55;;;;;;;3.13;2.40;;;15.20;99.90;;;;;;5006020;28;20699;-82
2021/08/07 02:44:22;;;;;;;2.30;2.10;;;15.20;99.90;;;;;;5013898;28;20220;-81
2021/08/07 02:46:50;;;;;;;4.10;2.20;;;15.20;99.90;;;;;;5003840;28;20296;-80
2021/08/07 02:49:17;;;;;;;2.00;1.90;;;15.30;99.90;;;;;;5004323;28;20209;-83
2021/08/07 02:51:44;;;;;;;3.73;2.50;;;15.30;99.90;;;;;;5010130;28;20291;-82
2021/08/07 02:54:12;;;;;;;4.03;2.97;;;15.30;99.90;;;;;;5006585;28;20295;-82
2021/08/07 02:56:39;;;;;;;3.10;2.80;;;15.30;99.90;;;;;;5008389;28;20251;-82
2021/08/07 02:59:06;;;;;;;5.63;2.83;;;15.30;99.90;;;;;;5005496;28;20284;-81
2021/08/07 03:01:33;;;;;;;2.30;2.10;;;15.20;99.90;;;;;;5004951;28;20648;-82
2021/08/07 03:04:00;;;;;;;3.80;2.17;;;15.20;99.90;;;;;;5009350;28;20212;-82
2021/08/07 03:06:27;;;;;;;3.17;2.50;;;15.30;99.90;;;;;;5009678;28;20247;-82
2021/08/07 03:08:54;;;;;;;3.47;2.10;;;15.20;99.90;;;;;;5007768;28;20279;-81
2021/08/07 03:11:22;;;;;;;2.50;2.30;;;15.20;99.90;;;;;;5002823;28;20295;-82
2021/08/07 03:13:49;;;;;;;2.87;2.40;;;15.20;99.90;;;;;;5006920;28;20204;-83
2021/08/07 03:16:16;;;;;;;4.00;2.90;;;15.10;99.90;;;;;;5009898;28;20287;-81
2021/08/07 03:18:43;;;;;;;4.57;3.07;;;15.10;99.90;;;;;;5005390;28;20291;-84
2021/08/07 03:21:10;;;;;;;5.93;3.83;;;15.00;99.90;;;;;;5002118;28;20522;-82
2021/08/07 03:23:37;;;;;;;5.40;3.30;;;15.00;99.90;;;;;;5007535;28;20664;-82
2021/08/07 03:26:04;;;;;;;4.13;3.83;;;15.00;99.90;;;;;;5006418;28;20228;-81
2021/08/07 03:28:32;;;;;;;6.00;5.40;;;15.00;99.90;;;;;;5012087;28;20212;-81
2021/08/07 03:30:59;;;;;;;5.13;4.30;;;15.00;99.90;;;;;;4997894;28;20312;-82
2021/08/07 03:33:25;;;;;;;4.10;3.70;;;15.00;99.90;;;;;;5006293;28;20211;-82
2021/08/07 03:35:52;;;;;;;3.30;3.00;;;15.00;99.90;;;;;;5006391;28;20224;-82
2021/08/07 03:38:19;;;;;;;2.23;2.00;;;15.00;99.90;;;;;;5009057;28;20212;-83
2021/08/07 03:40:46;;;;;;;3.03;2.63;;;15.00;99.90;;;;;;5000193;28;20623;-83
2021/08/07 03:43:13;;;;;;;4.13;2.33;;;15.00;99.90;;;;;;5004620;28;20231;-81
2021/08/07 03:45:41;;;;;;;3.47;2.93;;;15.10;99.90;;;;;;5011207;28;20291;-82
2021/08/07 03:48:08;;;;;;;4.73;2.57;;;15.00;99.90;;;;;;5007660;28;20562;-83
2021/08/07 03:50:35;;;;;;;3.13;2.73;;;15.00;99.90;;;;;;5005260;28;20291;-81
2021/08/07 03:53:02;;;;;;;2.50;2.30;;;15.00;99.90;;;;;;5011485;28;20230;-82
2021/08/07 03:55:29;;;;;;;3.17;2.40;;;15.00;99.90;;;;;;5012821;28;20288;-81
2021/08/07 03:57:58;;;;;;;5.00;2.73;;;15.00;99.90;;;;;;5006297;28;20556;-82
2021/08/07 04:00:27;;;;;;;4.93;2.83;;;15.00;99.90;;;;;;5004037;28;20212;-80
2021/08/07 04:02:55;;;;;;;3.73;3.33;;;15.00;99.90;;;;;;5007044;28;20671;-82
2021/08/07 04:05:22;;;;;;;4.83;3.60;;;15.00;99.90;;;;;;5009751;28;20238;-82
2021/08/07 04:07:49;;;;;;;4.97;3.70;;;15.20;99.90;;;;;;5005280;28;20208;-81
2021/08/07 04:10:18;;;;;;;4.00;3.27;;;15.60;99.90;;;;;;5008164;28;20647;-81
2021/08/07 04:12:45;;;;;;;4.57;2.97;;;15.70;99.90;;;;;;5010117;28;20208;-82
2021/08/07 04:15:12;;;;;;;3.93;3.20;;;15.50;99.90;;;;;;5009730;28;20580;-82
2021/08/07 04:17:40;;;;;;;3.60;3.10;;;15.30;99.90;;;;;;5011475;28;20311;-83
2021/08/07 04:20:10;;;;;;;6.00;2.83;;;15.40;99.90;;;;;;5009875;28;20228;-82
2021/08/07 04:22:38;;;;;;;3.70;3.25;;;15.40;99.90;;;;;;5008033;28;20235;-81
2021/08/07 04:25:06;;;;;;;5.50;3.38;;;15.50;99.90;;;;;;5015524;28;20224;-82
2021/08/07 04:27:33;;;;;;;6.43;3.03;;;15.60;99.90;;;;;;5009657;28;20205;-81
2021/08/07 04:30:00;;;;;;;3.10;2.40;;;15.60;99.90;;;;;;5010916;28;20235;-82
2021/08/07 04:32:27;;;;;;;2.33;2.13;;;15.70;99.90;;;;;;5009709;28;20230;-82
2021/08/07 04:34:54;;;;;;;3.43;2.40;;;15.80;99.90;;;;;;5010136;28;20323;-80
2021/08/07 04:37:22;;;;;;;3.20;2.77;;;15.90;99.90;;;;;;5012415;28;20323;-82
2021/08/07 04:39:49;;;;;;;2.70;2.50;;;16.00;99.90;;;;;;5008207;28;20968;-82
2021/08/07 04:42:16;;;;;;;3.45;2.78;;;15.90;99.90;;;;;;5009273;28;20291;-81
2021/08/07 04:44:43;;;;;;;2.10;1.90;;;15.80;99.90;;;;;;5011574;28;20622;-81
2021/08/07 04:47:10;;;;;;;2.67;2.15;;;15.90;99.90;;;;;;5010477;28;20867;-82
2021/08/07 04:49:37;;;;;;;2.73;2.23;;;16.10;99.90;;;;;;5005268;28;20650;-82
2021/08/07 04:52:05;;;;;;;3.67;2.60;;;16.10;99.90;;;;;;5009354;28;20620;-80
2021/08/07 04:54:33;;;;;;;2.90;2.05;;;16.10;99.90;;;;;;5013873;28;20207;-81
2021/08/07 04:57:00;;;;;;;2.10;1.92;;;16.20;99.90;;;;;;5005936;28;20229;-83
2021/08/07 04:59:27;;;;;;;2.30;2.10;;;16.20;99.90;;;;;;5009975;28;20201;-81
2021/08/07 05:01:53;;;;;;;4.63;2.20;;;16.20;99.90;;;;;;5008914;28;20208;-83
2021/08/07 05:04:20;;;;;;;3.13;2.15;;;16.10;99.90;;;;;;5013124;28;20729;-81
2021/08/07 05:06:47;;;;;;;4.28;3.15;;;16.00;99.90;;;;;;5007501;28;20316;-83
2021/08/07 05:09:14;;;;;;;3.17;2.83;;;16.10;99.90;;;;;;5016207;28;20284;-83
2021/08/07 05:11:42;;;;;;;7.72;3.90;;;16.10;99.90;;;;;;5008171;28;20292;-82
2021/08/07 05:14:09;;;;;;;4.25;3.08;;;16.20;99.90;;;;;;5016219;28;20216;-81
2021/08/07 05:16:36;;;;;;;3.42;3.13;;;16.10;99.90;;;;;;5009520;28;20224;-83
2021/08/07 05:19:03;;;;;;;3.72;2.00;;;16.30;99.90;;;;;;5008158;28;20296;-81
2021/08/07 05:21:29;;;;;;;1.85;1.73;;;16.30;99.90;;;;;;5007270;28;20243;-82
2021/08/07 05:23:56;;;;;;;2.00;1.90;;;16.20;99.90;;;;;;5007044;28;20251;-83
2021/08/07 05:26:23;;;;;;;2.58;2.08;;;16.10;99.90;;;;;;5011097;28;20228;-82
2021/08/07 05:28:52;;;;;;;6.88;3.78;;;16.30;99.90;;;;;;5014820;28;20641;-83
2021/08/07 05:31:18;;;;;;;3.00;2.60;;;16.50;99.90;;;;;;5006621;28;20231;-83
2021/08/07 05:33:45;;;;;;;6.80;4.50;;;16.90;99.90;;;;;;5009942;28;20243;-82
2021/08/07 05:36:12;;;;;;;3.20;2.10;;;17.30;99.90;;;;;;5010844;28;20222;-82
2021/08/07 05:38:39;;;;;;;2.30;2.03;;;17.00;99.90;;;;;;5008366;28;20239;-82
2021/08/07 05:41:06;;;;;;;5.13;1.92;;;16.80;99.90;;;;;;5010891;28;20656;-81
2021/08/07 05:43:32;;;;;;;2.97;2.00;;;16.70;99.90;;;;;;5003567;28;20296;-83
2021/08/07 05:46:01;;;;;;;3.03;2.33;;;16.50;99.90;;;;;;5010031;28;20314;-81
2021/08/07 05:48:28;;;;;;;4.47;2.10;;;16.70;99.90;;;;;;5006915;28;20217;-82
2021/08/07 05:50:54;;;;;;;2.25;2.05;;;16.60;99.90;;;;;;5009467;28;20239;-82
2021/08/07 05:53:21;;;;;;;1.95;1.70;;;16.70;99.90;;;;;;5013095;28;20648;-82
2021/08/07 05:55:48;;;;;;;4.00;2.15;;;16.80;99.90;;;;;;5003489;28;20311;-82
2021/08/07 05:58:15;;;;;;;2.83;2.05;;;17.00;99.90;;;;;;5009339;28;20213;-84
2021/08/07 06:00:42;;;;;;;2.40;1.90;;;17.00;99.90;;;;;;5008032;28;20661;-81
2021/08/07 06:03:10;;;;;;;1.90;1.70;;;17.10;99.90;;;;;;5012597;28;20566;-83
2021/08/07 06:05:37;;;;;;;4.25;1.55;;;17.10;99.90;;;;;;5005000;28;20324;-82
2021/08/07 06:08:04;;;;;;;2.80;2.15;;;17.10;99.90;;;;;;5002890;28;20665;-81
2021/08/07 06:10:31;;;;;;;3.97;1.80;;;17.20;99.90;;;;;;5005760;28;20207;-83
2021/08/07 06:12:58;;;;;;;1.65;1.55;;;17.30;99.90;;;;;;5007533;28;20209;-80
2021/08/07 06:15:25;;;;;;;3.80;1.60;;;17.40;99.90;;;;;;5007967;28;20658;-83
2021/08/07 06:17:52;;;;;;;2.80;2.25;;;17.50;99.90;;;;;;5007636;28;20429;-82
2021/08/07 06:20:20;;;;;;;2.13;1.90;;;17.60;99.90;;;;;;5004353;28;20623;-83
2021/08/07 06:22:47;;;;;;;4.75;3.65;;;17.60;99.90;;;;;;5011181;28;20210;-83
2021/08/07 06:25:14;;;;;;;2.80;2.53;;;17.80;99.90;;;;;;5014741;28;20205;-82
2021/08/07 06:27:41;;;;;;;2.75;2.55;;;17.70;99.90;;;;;;5012720;28;20295;-82
2021/08/07 06:30:09;;;;;;;2.10;1.73;;;18.20;99.90;;;;;;5011256;28;20207;-83
2021/08/07 06:32:36;;;;;;;2.53;1.70;;;18.50;99.90;;;;;;5012262;28;20593;-82
2021/08/07 06:35:03;;;;;;;5.30;1.75;;;18.10;99.90;;;;;;5007440;28;20201;-79
2021/08/07 06:37:32;;;;;;;2.00;1.90;;;18.20;99.90;;;;;;5013860;28;20320;-82
2021/08/07 06:39:58;;;;;;;1.50;1.35;;;18.20;99.90;;;;;;5005000;28;20656;-82
2021/08/07 06:42:25;;;;;;;3.92;1.90;;;18.40;99.90;;;;;;5011798;28;20295;-82
2021/08/07 06:44:52;;;;;;;2.63;1.67;;;18.40;99.90;;;;;;5005964;28;20642;-80
2021/08/07 06:47:19;;;;;;;2.05;1.60;;;18.40;99.90;;;;;;5012165;28;20620;-81
2021/08/07 06:49:46;;;;;;;1.77;1.52;;;18.50;99.90;;;;;;5007562;28;20201;-83
2021/08/07 06:52:13;;;;;;;3.45;1.70;;;18.60;99.90;;;;;;5013990;28;20196;-80
2021/08/07 06:54:41;;;;;;;3.17;1.55;;;18.50;99.90;;;;;;5014430;28;20241;-83
2021/08/07 06:57:08;;;;;;;2.60;1.60;;;18.60;99.90;;;;;;5027994;28;20288;-81
2021/08/07 06:59:35;;;;;;;1.95;1.50;;;18.60;99.90;;;;;;5009915;28;20235;-80
2021/08/07 07:02:02;;;;;;;2.28;1.73;;;18.70;99.90;;;;;;5008504;28;20197;-81
2021/08/07 07:04:29;;;;;;;2.60;1.70;;;18.70;99.90;;;;;;5012503;28;20215;-80
2021/08/07 07:06:57;;;;;;;2.25;1.40;;;18.60;99.90;;;;;;5011190;28;20246;-82
2021/08/07 07:09:24;;;;;;;2.05;1.48;;;18.60;99.90;;;;;;5009523;28;20548;-81
2021/08/07 07:11:52;;;;;;;2.20;1.30;;;18.60;99.90;;;;;;5016007;28;20867;-82
2021/08/07 07:14:19;;;;;;;1.50;1.40;;;18.60;99.90;;;;;;5015255;28;20204;-82
2021/08/07 07:16:46;;;;;;;4.47;2.30;;;18.50;99.90;;;;;;5014207;28;20224;-81
2021/08/07 07:19:12;;;;;;;2.08;1.52;;;18.50;99.90;;;;;;5008270;28;20645;-81
2021/08/07 07:21:41;;;;;;;2.30;1.80;;;18.50;99.90;;;;;;5012121;28;20291;-81
2021/08/07 07:24:08;;;;;;;3.85;1.50;;;18.60;99.90;;;;;;5017105;28;20200;-83
2021/08/07 07:26:35;;;;;;;1.50;1.33;;;18.70;99.90;;;;;;5010044;28;20307;-81
2021/08/07 07:29:04;;;;;;;1.30;1.20;;;18.60;99.90;;;;;;5019000;28;20200;-81
2021/08/07 07:31:31;;;;;;;1.95;1.17;;;18.90;99.90;;;;;;5009753;28;20260;-80
2021/08/07 07:33:58;;;;;;;2.15;1.40;;;19.00;99.90;;;;;;5008951;28;20205;-81
2021/08/07 07:36:25;;;;;;;3.35;1.40;;;19.10;99.90;;;;;;5010306;28;20255;-81
2021/08/07 07:38:52;;;;;;;2.97;1.40;;;19.20;99.90;;;;;;5014986;28;20208;-83
2021/08/07 07:41:19;;;;;;;2.28;1.23;;;19.20;99.90;;;;;;5015572;28;20510;-81
2021/08/07 07:43:46;;;;;;;1.58;1.40;;;19.30;99.90;;;;;;5014211;28;20205;-80
2021/08/07 07:46:14;;;;;;;2.42;1.58;;;19.30;99.90;;;;;;5012098;28;20302;-82
2021/08/07 07:48:41;;;;;;;2.83;1.35;;;19.40;99.90;;;;;;5012717;28;20290;-82
2021/08/07 07:51:08;;;;;;;1.48;1.30;;;19.40;99.90;;;;;;5018522;28;20271;-82
2021/08/07 07:53:35;;;;;;;3.38;1.15;;;19.40;99.90;;;;;;5017929;28;20208;-81
2021/08/07 07:56:03;;;;;;;2.05;1.60;;;19.60;99.90;;;;;;5013689;28;20260;-81
2021/08/07 07:58:30;;;;;;;2.10;1.20;;;19.80;99.90;;;;;;5015421;28;20354;-82
2021/08/07 08:00:57;;;;;;;1.90;1.50;;;19.80;99.90;;;;;;5021588;28;20674;-81
2021/08/07 08:03:25;;;;;;;1.38;1.13;;;19.80;99.90;;;;;;5024462;28;20200;-82
2021/08/07 08:05:52;;;;;;;2.03;1.40;;;19.90;99.90;;;;;;5031598;28;20266;-82
2021/08/07 08:08:19;;;;;;;2.00;1.40;;;19.60;99.90;;;;;;5026403;28;20238;-81
2021/08/07 08:10:46;;;;;;;1.23;1.20;;;19.60;99.90;;;;;;5022404;28;20263;-81
2021/08/07 08:13:12;;;;;;;3.17;1.45;;;19.70;99.90;;;;;;5022071;28;20284;-81
2021/08/07 08:15:40;;;;;;;1.45;1.33;;;19.80;99.90;;;;;;5025177;28;20255;-81
2021/08/07 08:18:08;;;;;;;1.48;1.38;;;20.00;99.90;;;;;;5026128;28;20206;-81
2021/08/07 08:20:36;;;;;;;1.83;1.73;;;20.10;99.90;;;;;;5024469;28;20276;-82
2021/08/07 08:23:03;;;;;;;2.17;1.48;;;20.20;99.90;;;;;;5024659;28;20231;-80
2021/08/07 08:25:30;;;;;;;2.33;1.15;;;20.20;99.90;;;;;;5021845;28;20251;-80
2021/08/07 08:27:57;;;;;;;1.90;1.40;;;20.30;99.90;;;;;;5020688;28;20232;-80
2021/08/07 08:30:26;;;;;;;1.60;1.33;;;20.30;99.90;;;;;;5022128;28;20695;-80
2021/08/07 08:32:53;;;;;;;1.83;1.35;;;20.20;99.90;;;;;;5021575;28;20205;-80
2021/08/07 08:35:20;;;;;;;2.30;1.52;;;20.40;99.90;;;;;;5020317;28;20614;-81
2021/08/07 08:37:48;;;;;;;1.23;1.10;;;20.50;99.90;;;;;;5022765;28;20319;-80
2021/08/07 08:40:16;;;;;;;2.40;1.33;;;20.60;99.90;;;;;;5023203;28;20239;-80
2021/08/07 08:42:43;;;;;;;1.38;1.20;;;20.70;99.90;;;;;;5022238;28;20668;-80
2021/08/07 08:45:11;;;;;;;1.88;1.45;;;21.00;99.90;;;;;;5022673;28;20232;-80
2021/08/07 08:47:38;;;;;;;3.08;1.60;;;21.10;99.90;;;;;;5021934;28;20710;-80
2021/08/07 08:50:06;;;;;;;3.65;1.10;;;21.20;99.90;;;;;;5021756;28;20228;-80
2021/08/07 08:52:36;;;;;;;4.07;1.45;;;20.90;99.90;;;;;;5021370;28;20728;-80
2021/08/07 08:55:05;;;;;;;1.05;0.90;;;21.10;99.90;;;;;;5023057;28;20239;-78
2021/08/07 08:57:32;;;;;;;1.17;1.00;;;21.00;99.90;;;;;;5022241;28;20212;-80
2021/08/07 08:59:59;;;;;;;1.60;1.30;;;21.10;99.90;;;;;;5021887;28;20208;-81
2021/08/07 09:02:26;;;;;;;1.23;1.13;;;21.30;99.90;;;;;;5015646;28;20235;-80
2021/08/07 09:04:53;;;;;;;1.40;1.30;;;21.50;99.90;;;;;;5021148;28;20272;-80
2021/08/07 09:07:20;;;;;;;1.50;1.40;;;21.90;99.90;;;;;;5020438;28;20288;-80
2021/08/07 09:09:53;;;;;;;1.80;1.25;;;22.10;99.90;;;;;;5022987;28;20211;-80
2021/08/07 09:12:39;;;;;;;4.50;1.20;;;22.00;99.90;;;;;;5021126;28;20394;-80
2021/08/07 09:15:07;;;;;;;4.07;1.75;;;22.00;99.90;;;;;;5011714;28;20207;-80
2021/08/07 09:17:34;;;;;;;1.73;1.17;;;22.00;99.90;;;;;;5020066;28;20311;-80
2021/08/07 09:20:01;;;;;;;1.75;1.20;;;22.10;99.90;;;;;;5023416;28;20727;-81
2021/08/07 09:22:31;;;;;;;2.50;1.30;;;22.20;99.90;;;;;;5022991;28;20208;-80
2021/08/07 09:25:05;;;;;;;2.97;1.40;;;22.30;99.90;;;;;;5022833;28;20219;-80
2021/08/07 09:27:35;;;;;;;3.80;1.52;;;22.60;99.90;;;;;;5022641;28;20224;-81
2021/08/07 09:30:04;;;;;;;1.38;1.08;;;23.70;99.90;;;;;;5023859;28;20283;-81
2021/08/07 09:32:45;;;;;;;2.53;1.27;;;23.40;99.90;;;;;;5021952;28;20208;-81
2021/08/07 09:35:14;;;;;;;5.18;1.52;;;23.10;99.90;;;;;;5014979;28;20271;-80
2021/08/07 09:37:41;;;;;;;2.28;1.30;;;23.70;99.90;;;;;;5019549;28;20583;-81
2021/08/07 09:40:10;;;;;;;1.48;1.33;;;23.60;99.90;;;;;;5010670;28;20287;-80
2021/08/07 09:42:51;;;;;;;1.67;1.30;;;23.60;99.90;;;;;;5020448;28;20268;-81
2021/08/07 09:45:22;;;;;;;2.53;1.23;;;23.40;99.90;;;;;;5022970;28;20216;-81
2021/08/07 09:47:58;;;;;;;3.67;1.38;;;23.70;99.90;;;;;;5023459;28;20704;-81
2021/08/07 09:50:26;;;;;;;2.90;1.77;;;24.10;99.90;;;;;;5022443;28;20202;-81
2021/08/07 09:52:54;;;;;;;2.30;1.58;;;23.70;99.90;;;;;;5024205;28;20236;-81
2021/08/07 09:55:21;;;;;;;3.13;1.75;;;23.40;99.90;;;;;;5022251;28;20684;-82
2021/08/07 09:58:03;;;;;;;1.55;1.42;;;23.70;99.90;;;;;;5016404;28;20282;-82
2021/08/07 10:00:37;;;;;;;2.72;1.48;;;24.10;99.90;;;;;;5012586;28;20223;-81
2021/08/07 10:03:15;;;;;;;1.58;0.95;;;24.40;99.90;;;;;;5015099;28;20271;-82
2021/08/07 10:05:42;;;;;;;3.78;2.83;;;24.30;99.90;;;;;;5017252;28;20220;-82
2021/08/07 10:08:11;;;;;;;1.52;1.08;;;24.70;99.90;;;;;;5015907;28;20244;-82
2021/08/07 10:10:38;;;;;;;2.95;0.90;;;24.70;99.90;;;;;;5012890;28;20271;-83
2021/08/07 10:13:07;;;;;;;4.00;1.13;;;24.30;99.90;;;;;;5010207;28;20229;-82
2021/08/07 10:15:35;;;;;;;1.80;1.08;;;24.20;99.90;;;;;;5011457;28;20307;-81
2021/08/07 10:18:02;;;;;;;1.35;1.00;;;24.60;99.90;;;;;;5010074;28;20231;-83
2021/08/07 10:20:29;;;;;;;2.60;1.05;;;24.80;99.90;;;;;;5010510;28;20291;-83
2021/08/07 10:22:57;;;;;;;3.63;1.30;;;24.30;99.90;;;;;;5013636;28;20197;-83
2021/08/07 10:25:25;;;;;;;0.98;0.95;;;24.10;99.90;;;;;;5014280;28;20288;-83
2021/08/07 10:27:57;;;;;;;1.92;1.00;;;23.90;99.90;;;;;;5017683;28;20295;-83
2021/08/07 10:30:27;;;;;;;1.73;0.90;;;23.80;99.90;;;;;;5015634;28;20208;-83
2021/08/07 10:32:56;;;;;;;1.13;0.98;;;23.60;99.90;;;;;;5016538;28;20273;-83
2021/08/07 10:35:26;;;;;;;2.53;0.80;;;23.80;99.90;;;;;;5016179;28;20211;-84
2021/08/07 10:37:54;;;;;;;2.50;1.10;;;24.10;99.90;;;;;;5020056;28;20214;-83
2021/08/07 10:40:21;;;;;;;2.85;1.05;;;24.60;99.90;;;;;;5021436;28;20208;-83
2021/08/07 10:42:50;;;;;;;2.05;1.00;;;24.70;99.90;;;;;;5017561;28;20275;-83
2021/08/07 10:45:18;;;;;;;2.15;1.30;;;24.20;99.90;;;;;;5017013;28;20216;-82
2021/08/07 10:47:48;;;;;;;1.48;0.90;;;24.00;99.90;;;;;;5017603;28;20259;-83
2021/08/07 10:50:36;;;;;;;1.33;0.85;;;24.20;99.90;;;;;;5011882;28;20209;-82
2021/08/07 10:53:06;;;;;;;2.28;1.23;;;25.10;99.90;;;;;;5016546;28;20265;-82
2021/08/07 10:55:44;;;;;;;4.00;1.00;;;25.20;99.90;;;;;;5019539;28;20292;-82
2021/08/07 10:58:36;;;;;;;1.95;1.15;;;24.90;99.90;;;;;;5022983;28;20264;-82
2021/08/07 11:01:28;;;;;;;1.50;1.02;;;25.00;99.90;;;;;;5020118;28;20212;-82
2021/08/07 11:04:16;;;;;;;2.47;1.10;;;25.00;99.90;;;;;;5001483;28;20208;-83
2021/08/07 11:06:56;;;;;;;2.35;1.00;;;24.90;99.90;;;;;;5016627;28;20225;-83
2021/08/07 11:09:26;;;;;;;2.75;1.10;;;24.40;99.90;;;;;;5017582;28;20219;-83
2021/08/07 11:12:18;;;;;;;2.17;0.90;;;24.80;99.90;;;;;;5020587;28;20264;-82
2021/08/07 11:14:50;;;;;;;3.00;1.23;;;25.00;99.90;;;;;;5001935;28;20229;-82
2021/08/07 11:17:51;;;;;;;3.63;2.17;;;25.00;99.90;;;;;;5019021;28;20307;-82
2021/08/07 11:20:43;;;;;;;2.00;1.05;;;25.10;99.90;;;;;;4951430;28;20230;-81
2021/08/07 11:23:21;;;;;;;4.05;1.25;;;25.50;99.90;;;;;;4949231;28;20223;-81
2021/08/07 11:26:11;;;;;;;2.88;1.13;;;25.50;99.90;;;;;;5000672;28;20232;-82
2021/08/07 11:29:07;;;;;;;1.48;1.20;;;26.10;99.90;;;;;;5020455;28;20236;-82
2021/08/07 11:31:34;;;;;;;5.13;1.55;;;26.10;99.90;;;;;;5024448;28;20208;-81
2021/08/07 11:34:27;;;;;;;2.15;1.35;;;25.80;99.90;;;;;;5018564;28;20227;-81
2021/08/07 11:37:15;;;;;;;2.05;1.25;;;25.70;99.90;;;;;;5022404;28;20243;-81
2021/08/07 11:40:16;;;;;;;3.10;1.05;;;25.50;99.90;;;;;;5019056;28;20303;-81
2021/08/07 11:42:50;;;;;;;4.55;1.05;;;24.90;99.90;;;;;;4963309;28;20212;-81
2021/08/07 11:45:19;;;;;;;3.42;1.25;;;24.70;99.90;;;;;;4964247;28;20221;-82
2021/08/07 11:47:49;;;;;;;1.23;1.00;;;24.60;99.90;;;;;;4992917;28;20299;-81
2021/08/07 11:50:17;;;;;;;2.00;1.10;;;24.90;99.90;;;;;;5024206;28;20641;-81
2021/08/07 11:52:46;;;;;;;4.15;1.45;;;24.50;99.90;;;;;;5020068;28;20235;-82
2021/08/07 11:55:13;;;;;;;1.63;1.10;;;24.40;99.90;;;;;;5018910;28;20255;-82
2021/08/07 11:57:39;;;;;;;2.90;1.00;;;24.40;99.90;;;;;;5021736;28;20254;-81
2021/08/07 12:00:27;;;;;;;1.70;1.20;;;24.70;99.90;;;;;;5019075;28;20644;-82
2021/08/07 12:03:06;;;;;;;4.07;1.30;;;25.20;99.90;;;;;;5017954;28;20212;-82
2021/08/07 12:05:34;;;;;;;1.40;1.30;;;25.40;99.90;;;;;;5025935;28;20238;-82
2021/08/07 12:08:05;;;;;;;1.88;1.23;;;25.30;99.90;;;;;;5026179;28;20244;-81
2021/08/07 12:10:32;;;;;;;3.90;1.40;;;25.20;99.90;;;;;;5023784;28;20276;-80
2021/08/07 12:13:00;;;;;;;3.17;1.27;;;25.20;99.90;;;;;;5015560;28;20264;-82
2021/08/07 12:15:27;;;;;;;3.30;1.55;;;24.90;99.90;;;;;;5022880;28;20229;-82
2021/08/07 12:17:55;;;;;;;1.42;0.88;;;25.50;99.90;;;;;;5020343;28;20266;-81
2021/08/07 12:20:23;;;;;;;3.25;1.40;;;25.00;99.90;;;;;;5029782;28;20290;-82
2021/08/07 12:22:57;;;;;;;1.13;1.02;;;24.40;99.90;;;;;;5040571;28;20200;-80
2021/08/07 12:25:27;;;;;;;2.33;1.23;;;24.30;99.90;;;;;;5030306;28;20195;-81
2021/08/07 12:28:07;;;;;;;2.30;1.35;;;24.40;99.90;;;;;;5023140;28;20696;-81
2021/08/07 12:30:34;;;;;;;4.03;1.40;;;24.40;99.90;;;;;;5021350;28;20209;-81
2021/08/07 12:33:14;;;;;;;2.40;1.55;;;24.30;99.90;;;;;;5017984;28;20209;-81
2021/08/07 12:35:41;;;;;;;3.70;1.40;;;24.20;99.90;;;;;;5027096;28;20227;-81
2021/08/07 12:38:15;;;;;;;4.85;1.80;;;24.20;99.90;;;;;;5020859;28;20251;-81
2021/08/07 12:40:45;;;;;;;2.60;1.23;;;24.80;99.90;;;;;;5026687;28;20219;-80
2021/08/07 12:43:13;;;;;;;2.60;1.20;;;25.00;99.90;;;;;;5020060;28;20259;-81
2021/08/07 12:45:40;;;;;;;2.28;1.20;;;25.20;99.90;;;;;;5020769;28;20236;-81
2021/08/07 12:48:07;;;;;;;3.50;1.48;;;25.20;99.90;;;;;;5024248;28;20224;-81
2021/08/07 12:50:35;;;;;;;2.58;1.23;;;25.10;99.90;;;;;;5028308;28;20197;-81
2021/08/07 12:53:04;;;;;;;2.80;1.25;;;25.00;99.90;;;;;;5024818;28;20208;-80
2021/08/07 12:55:33;;;;;;;3.17;1.08;;;25.30;99.90;;;;;;5027100;28;20231;-82
2021/08/07 12:58:16;;;;;;;3.45;1.20;;;25.30;99.90;;;;;;5023599;28;20286;-81
2021/08/07 13:00:43;;;;;;;5.05;1.50;;;25.10;99.90;;;;;;5020122;28;20219;-81